Terminal Aerodrome Forecast
Issued by NWS Los Angeles, CA

Current Version | Previous Version | Text Only | Print | Product List | Glossary On
Versions: 1 2 3 4 5 6 7 8 9 10 11 12 13 14 15 16 17 18 19
551
FTUS46 KLOX 291723
TAFSMX
TAF
KSMX 291723Z 2918/3018 34009KT P6SM FEW200
     FM292100 31015G25KT P6SM SKC
     FM300300 31008KT P6SM SKC=

USA.gov is the U.S. government's official web portal to all federal, state and local government web resources and services.